Time;durP1;ratioP1;P1;durP2;ratioP2;P2;SDS_P1;SDS_P2;PMS_P1;PMS_P2;Temp;Humidity;BMP_temperature;BMP_pressure;BME280_temperature;BME280_humidity;BME280_pressure;Samples;Min_cycle;Max_cycle;Signal;HPM_P1;HPM_P2
2022/09/08 00:01:16;;;;;;;16.35;9.20;;;;;;;14.82;69.03;99903.42;2141811;82;21521;-75
2022/09/08 00:04:17;;;;;;;13.40;9.38;;;;;;;14.78;69.06;99896.82;2110412;81;20991;-71
2022/09/08 00:07:18;;;;;;;11.85;8.83;;;;;;;14.80;69.13;99903.61;2141300;81;21603;-71
2022/09/08 00:10:20;;;;;;;16.37;9.20;;;;;;;14.78;69.16;99904.83;2143310;81;21597;-71
2022/09/08 00:13:23;;;;;;;16.20;9.63;;;;;;;14.77;69.21;99903.20;2137128;81;21090;-71
2022/09/08 00:16:24;;;;;;;14.58;9.68;;;;;;;14.76;69.12;99898.38;2138354;81;21545;-71
2022/09/08 00:19:26;;;;;;;15.58;8.68;;;;;;;14.75;69.16;99903.41;2146030;81;21083;-71
2022/09/08 00:22:30;;;;;;;14.55;9.03;;;;;;;14.75;69.39;99903.41;2184119;79;21009;-71
2022/09/08 00:25:31;;;;;;;16.40;9.15;;;;;;;14.75;69.29;99907.91;2184567;79;21037;-73
2022/09/08 00:28:32;;;;;;;16.15;9.83;;;;;;;14.74;69.45;99903.08;2177691;79;21545;-71
2022/09/08 00:31:38;;;;;;;12.70;8.45;;;;;;;14.72;69.49;99906.45;2182391;80;21018;-71
2022/09/08 00:34:39;;;;;;;14.83;9.80;;;;;;;14.68;69.48;99906.55;2188103;79;21006;-71
2022/09/08 00:37:41;;;;;;;13.25;9.20;;;;;;;14.62;69.54;99905.20;2179735;80;21048;-72
2022/09/08 00:40:45;;;;;;;14.00;9.55;;;;;;;14.59;69.66;99898.41;2183877;79;21081;-71
2022/09/08 00:43:58;;;;;;;14.50;8.93;;;;;;;14.57;69.57;99891.91;2184734;79;20967;-71
2022/09/08 00:46:57;;;;;;;16.70;9.80;;;;;;;14.57;69.70;99889.76;2182548;79;21674;-72
2022/09/08 00:50:09;;;;;;;15.43;9.48;;;;;;;14.56;69.83;99888.94;2187047;80;21002;-71
2022/09/08 00:53:14;;;;;;;17.02;9.35;;;;;;;14.54;69.79;99896.31;2184283;80;21021;-71
2022/09/08 00:56:16;;;;;;;15.03;9.03;;;;;;;14.50;69.93;99896.86;2185758;79;21052;-70
2022/09/08 00:59:20;;;;;;;12.88;9.20;;;;;;;14.47;70.08;99899.94;2183897;80;21040;-71
2022/09/08 01:02:25;;;;;;;13.65;8.55;;;;;;;14.44;70.21;99902.48;2178617;79;20974;-71
2022/09/08 01:05:30;;;;;;;15.32;9.30;;;;;;;14.41;70.23;99902.87;2185962;79;22547;-72
2022/09/08 01:15:40;;;;;;;15.08;9.95;;;;;;;14.34;70.49;99894.03;2186876;79;21001;-71
2022/09/08 01:18:42;;;;;;;18.20;10.23;;;;;;;14.29;70.84;99892.45;2185795;79;21428;-72
2022/09/08 01:21:51;;;;;;;12.85;9.65;;;;;;;14.27;70.78;99893.97;2188648;79;21077;-74
2022/09/08 01:25:15;;;;;;;16.33;9.40;;;;;;;14.27;70.91;99893.97;2185104;80;21045;-71
2022/09/08 01:28:30;;;;;;;15.13;9.30;;;;;;;14.27;70.90;99896.64;2178299;79;21560;-71
2022/09/08 01:31:37;;;;;;;20.57;10.03;;;;;;;14.29;70.90;99878.59;2181406;79;21022;-70
2022/09/08 01:34:41;;;;;;;14.60;8.98;;;;;;;14.30;70.79;99882.08;2185022;79;20990;-75
2022/09/08 01:37:42;;;;;;;12.33;8.68;;;;;;;14.29;70.82;99888.45;2182979;79;21072;-71
2022/09/08 01:40:43;;;;;;;15.43;9.35;;;;;;;14.27;70.92;99885.96;2179048;79;21588;-72
2022/09/08 01:43:44;;;;;;;17.60;9.98;;;;;;;14.25;70.87;99885.36;2160884;79;21549;-71
2022/09/08 01:46:45;;;;;;;14.55;9.65;;;;;;;14.22;71.06;99880.41;2182070;80;21001;-71
2022/09/08 01:49:46;;;;;;;13.53;9.55;;;;;;;14.16;71.10;99881.17;2185694;79;21027;-71
2022/09/08 01:52:51;;;;;;;14.47;9.78;;;;;;;14.12;71.52;99882.08;2181752;79;21077;-73
2022/09/08 01:55:51;;;;;;;18.73;11.08;;;;;;;14.07;71.23;99879.17;2183676;80;20990;-71
2022/09/08 01:58:52;;;;;;;15.08;9.48;;;;;;;14.04;71.35;99881.41;2183614;79;21667;-71
2022/09/08 02:01:53;;;;;;;16.40;9.85;;;;;;;14.02;71.66;99880.29;2187864;79;21478;-71
2022/09/08 02:04:54;;;;;;;18.48;10.45;;;;;;;14.03;71.71;99883.78;2187256;80;21068;-72
2022/09/08 02:07:58;;;;;;;14.98;9.98;;;;;;;14.01;71.75;99877.80;2180795;79;21053;-71
2022/09/08 02:11:00;;;;;;;15.80;10.13;;;;;;;14.00;71.66;99868.98;2182738;80;21063;-70
2022/09/08 02:14:01;;;;;;;13.75;10.05;;;;;;;14.00;71.76;99868.16;2184265;79;21002;-70
2022/09/08 02:17:03;;;;;;;23.22;10.08;;;;;;;13.99;71.62;99873.16;2184426;80;21057;-71
2022/09/08 02:20:05;;;;;;;18.00;10.58;;;;;;;13.99;71.55;99874.50;2186328;80;21027;-72
2022/09/08 02:23:06;;;;;;;14.85;9.58;;;;;;;13.96;71.55;99869.55;2185110;79;21452;-71
2022/09/08 02:26:18;;;;;;;16.17;9.83;;;;;;;13.96;71.51;99872.22;2183369;79;21025;-71
2022/09/08 02:29:19;;;;;;;14.70;9.60;;;;;;;13.94;71.66;99868.44;2175738;80;21053;-71
2022/09/08 02:32:20;;;;;;;15.18;9.85;;;;;;;13.92;71.61;99862.98;2186639;79;21077;-70
2022/09/08 02:35:21;;;;;;;21.20;10.95;;;;;;;13.91;71.77;99858.16;2186233;79;20971;-71
2022/09/08 02:38:23;;;;;;;17.92;10.40;;;;;;;13.88;71.66;99852.70;2160953;80;21510;-71
2022/09/08 02:41:27;;;;;;;18.20;10.08;;;;;;;13.85;71.72;99853.09;2182368;79;21057;-72
2022/09/08 02:44:31;;;;;;;15.08;10.60;;;;;;;13.84;71.73;99850.09;2179867;80;21449;-73
2022/09/08 02:47:34;;;;;;;18.82;11.18;;;;;;;13.84;71.76;99852.75;2184893;80;20978;-71
2022/09/08 02:50:36;;;;;;;25.17;10.80;;;;;;;13.83;71.71;99849.78;2188701;79;21034;-71
2022/09/08 02:53:39;;;;;;;16.93;10.03;;;;;;;13.82;71.61;99850.78;2184716;79;20974;-71
2022/09/08 02:56:40;;;;;;;17.23;11.00;;;;;;;13.82;71.64;99857.97;2183989;79;21552;-72
2022/09/08 02:59:41;;;;;;;21.97;10.45;;;;;;;13.79;71.60;99857.84;2184863;80;21038;-72
2022/09/08 03:02:42;;;;;;;18.23;9.78;;;;;;;13.79;71.59;99855.69;2189596;79;21054;-71
2022/09/08 03:05:43;;;;;;;15.68;10.10;;;;;;;13.77;71.56;99849.23;2183302;80;21506;-71
2022/09/08 03:08:46;;;;;;;15.80;10.82;;;;;;;13.75;71.54;99848.59;2181880;79;20983;-72
2022/09/08 03:11:47;;;;;;;14.58;11.12;;;;;;;13.71;71.60;99843.31;2160986;80;21014;-71
2022/09/08 03:14:48;;;;;;;15.68;9.90;;;;;;;13.70;71.59;99852.34;2185112;80;20982;-71
2022/09/08 03:17:50;;;;;;;22.62;11.25;;;;;;;13.66;71.67;99853.77;2183440;79;21063;-71
2022/09/08 03:21:09;;;;;;;14.60;10.72;;;;;;;13.64;71.64;99862.45;2182235;79;21030;-71
2022/09/08 03:24:10;;;;;;;18.27;11.22;;;;;;;13.62;71.91;99852.48;2187527;79;21022;-71
2022/09/08 03:27:11;;;;;;;17.05;10.63;;;;;;;13.56;71.91;99845.27;2184462;79;20995;-71
2022/09/08 03:30:14;;;;;;;19.40;10.68;;;;;;;13.50;71.94;99841.53;2188754;79;21077;-71
2022/09/08 03:33:16;;;;;;;18.92;11.15;;;;;;;13.48;72.02;99839.55;2183376;80;20967;-71
2022/09/08 03:36:20;;;;;;;18.62;10.20;;;;;;;13.45;72.04;99840.76;2187599;79;21066;-72
2022/09/08 03:39:21;;;;;;;15.03;10.13;;;;;;;13.43;72.07;99832.16;2186155;79;21017;-71
2022/09/08 03:42:22;;;;;;;17.07;10.80;;;;;;;13.40;72.18;99829.88;2186109;79;20955;-72
2022/09/08 03:45:24;;;;;;;18.10;9.95;;;;;;;13.37;72.17;99826.23;2184647;79;21017;-71
2022/09/08 03:48:25;;;;;;;15.00;10.30;;;;;;;13.33;72.23;99827.64;2186073;80;21062;-71
2022/09/08 03:51:26;;;;;;;21.42;12.07;;;;;;;13.30;72.18;99824.55;2184000;79;21007;-72
2022/09/08 03:57:47;;;;;;;15.58;11.28;;;;;;;13.28;72.26;99822.06;2194624;80;21105;-71
2022/09/08 04:00:49;;;;;;;18.42;11.38;;;;;;;13.26;72.29;99824.09;2188808;80;21485;-71
2022/09/08 04:03:51;;;;;;;17.20;11.12;;;;;;;13.24;72.37;99816.78;2187112;79;21148;-71
2022/09/08 04:06:52;;;;;;;17.87;11.78;;;;;;;13.22;72.37;99818.80;2181823;80;21010;-71
2022/09/08 04:09:54;;;;;;;15.83;10.93;;;;;;;13.22;72.41;99821.47;2190539;80;21487;-71
2022/09/08 04:12:55;;;;;;;19.48;11.85;;;;;;;13.20;72.36;99818.16;2180263;80;21048;-72
2022/09/08 04:15:56;;;;;;;16.95;11.55;;;;;;;13.20;72.46;99808.84;2195680;80;21094;-72
2022/09/08 04:18:57;;;;;;;23.32;12.07;;;;;;;13.20;72.45;99814.16;2187495;79;21133;-72
2022/09/08 04:21:58;;;;;;;17.45;10.95;;;;;;;13.19;72.46;99814.68;2181665;79;21038;-71
2022/09/08 04:25:01;;;;;;;17.87;11.18;;;;;;;13.18;72.48;99808.23;2189881;79;20947;-71
2022/09/08 04:28:02;;;;;;;24.20;11.55;;;;;;;13.18;72.52;99808.23;2165523;79;21026;-70
2022/09/08 04:31:06;;;;;;;21.00;11.33;;;;;;;13.18;72.63;99806.89;2191981;79;21552;-71
2022/09/08 04:34:07;;;;;;;18.80;12.25;;;;;;;13.18;72.62;99794.91;2189032;80;21050;-71
2022/09/08 04:37:08;;;;;;;21.85;12.78;;;;;;;13.18;72.69;99797.57;2190364;79;20916;-71
2022/09/08 04:40:10;;;;;;;19.80;11.18;;;;;;;13.19;72.70;99794.70;2190588;80;21510;-70
2022/09/08 04:43:11;;;;;;;19.55;11.73;;;;;;;13.20;72.68;99801.66;2161311;79;20979;-71
2022/09/08 04:46:17;;;;;;;20.48;11.95;;;;;;;13.24;72.55;99810.13;2185601;80;21038;-72
2022/09/08 04:49:18;;;;;;;17.05;10.88;;;;;;;13.26;72.48;99808.09;2190425;80;21046;-69
2022/09/08 04:52:24;;;;;;;21.77;11.38;;;;;;;13.28;72.49;99810.08;2188870;80;20966;-71
2022/09/08 04:55:25;;;;;;;20.23;11.08;;;;;;;13.33;72.39;99815.66;2191401;79;21034;-72
2022/09/08 04:58:29;;;;;;;18.98;11.30;;;;;;;13.38;72.35;99817.76;2186747;79;20940;-73
2022/09/08 05:01:35;;;;;;;20.77;10.88;;;;;;;13.47;72.27;99823.77;2190072;80;21123;-72
2022/09/08 05:04:37;;;;;;;17.30;11.00;;;;;;;13.53;72.16;99813.66;2189766;80;21443;-72
2022/09/08 05:07:38;;;;;;;17.50;11.48;;;;;;;13.57;72.16;99823.76;2185466;79;21080;-73
2022/09/08 05:10:41;;;;;;;16.62;11.78;;;;;;;13.62;72.12;99818.64;2180263;80;21080;-73
2022/09/08 05:13:43;;;;;;;19.70;10.93;;;;;;;13.77;72.11;99815.05;2188102;80;21089;-73
2022/09/08 05:16:44;;;;;;;18.90;10.82;;;;;;;14.01;71.92;99811.12;2186780;79;21010;-73
2022/09/08 05:19:45;;;;;;;18.00;10.80;;;;;;;14.15;71.47;99807.50;2182936;79;21060;-73
2022/09/08 05:22:46;;;;;;;21.27;11.35;;;;;;;14.25;71.35;99810.64;2185348;79;21032;-73
2022/09/08 05:26:06;;;;;;;19.32;11.22;;;;;;;14.41;71.28;99797.45;2178504;79;21700;-73
2022/09/08 05:29:07;;;;;;;15.30;10.50;;;;;;;14.73;70.96;99799.96;2180904;79;21013;-74
2022/09/08 05:32:08;;;;;;;17.62;11.08;;;;;;;15.05;70.47;99800.73;2184935;80;21010;-73
2022/09/08 05:35:09;;;;;;;18.12;10.75;;;;;;;15.47;70.11;99811.56;2144237;80;21105;-74
2022/09/08 05:38:10;;;;;;;16.57;10.68;;;;;;;15.89;69.80;99802.80;2184487;79;20989;-73
2022/09/08 05:41:13;;;;;;;18.95;9.78;;;;;;;16.28;68.54;99798.38;2184391;80;21441;-73
2022/09/08 05:44:14;;;;;;;17.48;10.13;;;;;;;16.47;67.61;99793.45;2164802;80;21054;-72
2022/09/08 05:47:15;;;;;;;19.25;9.70;;;;;;;16.31;66.80;99790.73;2183996;79;20960;-74
2022/09/08 05:50:16;;;;;;;15.90;9.58;;;;;;;16.08;66.93;99797.92;2183799;79;21030;-74
2022/09/08 05:53:17;;;;;;;18.50;9.85;;;;;;;15.98;66.59;99761.41;2187251;80;21040;-73
2022/09/08 05:56:18;;;;;;;18.05;10.63;;;;;;;16.14;66.49;99783.69;2190098;79;21528;-73
2022/09/08 05:59:20;;;;;;;14.85;9.75;;;;;;;16.20;66.29;99797.27;2187853;79;21045;-73
2022/09/08 06:02:21;;;;;;;14.47;10.08;;;;;;;16.02;66.01;99796.58;2164347;79;21530;-73
2022/09/08 06:05:23;;;;;;;16.75;10.28;;;;;;;16.11;66.21;99792.67;2162455;80;20995;-74
2022/09/08 06:08:25;;;;;;;17.77;10.50;;;;;;;16.52;66.00;99786.92;2163669;80;21058;-74
2022/09/08 06:11:28;;;;;;;19.55;10.85;;;;;;;16.86;65.41;99778.21;2180338;80;21073;-73
2022/09/08 06:14:30;;;;;;;15.28;9.83;;;;;;;17.20;65.37;99768.92;2183568;80;21007;-73
2022/09/08 06:17:33;;;;;;;17.55;10.35;;;;;;;17.38;64.25;99775.38;2180800;79;20963;-73
2022/09/08 06:20:36;;;;;;;13.32;9.58;;;;;;;17.31;64.35;99779.43;2184681;80;21531;-76
2022/09/08 06:23:40;;;;;;;13.65;9.20;;;;;;;17.37;64.58;99770.53;2178446;79;20985;-75
2022/09/08 06:27:10;;;;;;;13.53;9.35;;;;;;;17.55;64.13;99763.04;2166033;80;21008;-73
2022/09/08 06:30:19;;;;;;;16.90;9.85;;;;;;;17.75;64.28;99756.13;2184823;80;20995;-73
2022/09/08 06:33:28;;;;;;;16.55;10.38;;;;;;;18.06;64.05;99753.86;2188530;79;21022;-73
2022/09/08 06:36:42;;;;;;;18.12;10.72;;;;;;;18.41;62.49;99757.23;2187569;80;21038;-73
2022/09/08 06:40:03;;;;;;;21.50;10.85;;;;;;;18.63;63.33;99757.56;2182098;80;21437;-73
2022/09/08 06:43:39;;;;;;;16.95;9.50;;;;;;;18.86;62.97;99757.37;2188590;79;21006;-72
2022/09/08 06:46:41;;;;;;;12.65;9.28;;;;;;;18.99;62.19;99753.16;2189573;79;20990;-74
2022/09/08 06:49:44;;;;;;;13.20;9.18;;;;;;;19.10;62.33;99749.66;2158950;79;21026;-73
2022/09/08 06:52:51;;;;;;;15.68;9.85;;;;;;;19.24;61.57;99745.70;2182831;80;21041;-73
2022/09/08 06:56:11;;;;;;;13.25;9.95;;;;;;;19.49;62.58;99742.80;2188523;80;21519;-73
2022/09/08 06:59:38;;;;;;;14.05;9.35;;;;;;;20.00;62.02;99741.77;2184614;80;20998;-73
2022/09/08 07:03:00;;;;;;;14.28;9.33;;;;;;;20.30;61.13;99733.49;2193521;79;21042;-73
2022/09/08 07:06:09;;;;;;;16.85;9.25;;;;;;;20.07;60.45;99729.51;2185746;80;20967;-73
2022/09/08 07:10:02;;;;;;;13.48;9.55;;;;;;;19.95;60.87;99728.73;2184235;80;20916;-73
2022/09/08 07:13:13;;;;;;;16.70;8.23;;;;;;;19.96;61.12;99738.44;2180734;80;21585;-73
2022/09/08 07:16:29;;;;;;;15.85;9.95;;;;;;;20.07;60.88;99726.81;2185439;79;20971;-74
2022/09/08 07:19:38;;;;;;;15.95;9.18;;;;;;;20.26;60.64;99716.70;2168366;80;20979;-74
2022/09/08 07:22:56;;;;;;;12.60;8.90;;;;;;;20.19;60.46;99732.16;2183961;79;20997;-73
2022/09/08 07:26:14;;;;;;;14.50;9.08;;;;;;;20.05;60.34;99722.22;2182541;79;21647;-74
2022/09/08 07:29:29;;;;;;;;;;;;;;;20.07;60.99;99729.51;2186472;80;21015;-76
2022/09/08 07:32:39;;;;;;;16.75;9.43;;;;;;;20.50;60.95;99719.59;2185505;79;20160;-75
2022/09/08 07:36:26;;;;;;;15.07;9.10;;;;;;;20.90;60.17;99716.00;2185891;80;21058;-73
2022/09/08 07:39:50;;;;;;;15.80;10.48;;;;;;;21.15;59.79;99715.59;2186677;79;21034;-74
2022/09/08 07:43:00;;;;;;;15.38;9.60;;;;;;;21.37;59.59;99717.04;2186565;80;20983;-74
2022/09/08 07:46:25;;;;;;;17.57;10.88;;;;;;;21.65;59.19;99712.05;2187088;80;21014;-73
2022/09/08 07:50:04;;;;;;;16.32;9.78;;;;;;;21.99;58.16;99703.83;2179861;80;21037;-75
2022/09/08 07:53:15;;;;;;;13.70;8.75;;;;;;;22.43;58.71;99707.03;2180817;80;21474;-74
2022/09/08 07:57:00;;;;;;;11.28;8.73;;;;;;;22.71;57.70;99709.47;2190817;79;21054;-76
2022/09/08 08:00:32;;;;;;;11.95;8.33;;;;;;;23.05;57.24;99714.65;2164111;80;21014;-74
2022/09/08 08:04:17;;;;;;;15.50;8.10;;;;;;;23.20;56.28;99716.14;2187608;79;21524;-74
2022/09/08 08:07:55;;;;;;;12.33;8.85;;;;;;;23.34;56.78;99717.02;2183320;80;21014;-75
2022/09/08 08:11:25;;;;;;;14.00;9.40;;;;;;;23.56;55.38;99719.05;2184416;79;21482;-74
2022/09/08 08:15:08;;;;;;;27.85;17.98;;;;;;;23.69;54.91;99725.36;2164235;80;21042;-74
2022/09/08 08:18:35;;;;;;;16.62;9.53;;;;;;;23.92;55.54;99716.56;2190171;79;21070;-75
2022/09/08 08:21:44;;;;;;;12.33;7.90;;;;;;;23.94;54.54;99713.06;2190004;80;20963;-75
2022/09/08 08:25:28;;;;;;;13.38;7.85;;;;;;;24.10;54.13;99716.63;2184844;80;21010;-75
2022/09/08 08:28:40;;;;;;;13.85;8.08;;;;;;;24.27;54.04;99704.20;2187645;80;21014;-75
2022/09/08 08:31:47;;;;;;;14.85;8.08;;;;;;;24.44;53.79;99708.08;2184230;80;20978;-75
2022/09/08 08:35:35;;;;;;;9.05;7.22;;;;;;;24.43;53.44;99699.64;2180624;80;21034;-75
2022/09/08 08:38:46;;;;;;;11.83;7.33;;;;;;;24.54;52.91;99695.35;2158894;80;21010;-75
2022/09/08 08:42:09;;;;;;;12.40;8.00;;;;;;;24.56;52.61;99697.81;2147452;80;21046;-75
2022/09/08 08:45:33;;;;;;;14.05;7.55;;;;;;;24.72;53.20;99695.91;2191432;80;21036;-75
2022/09/08 08:49:02;;;;;;;14.35;7.45;;;;;;;24.86;52.59;99699.70;2186853;80;21461;-75
2022/09/08 08:52:46;;;;;;;11.20;7.95;;;;;;;24.92;52.36;99688.31;2182038;80;21077;-76
2022/09/08 08:56:23;;;;;;;16.15;7.67;;;;;;;25.08;52.04;99685.86;2189295;80;21010;-76
2022/09/08 08:59:33;;;;;;;10.43;7.60;;;;;;;25.17;51.83;99682.08;2158284;80;20962;-75
2022/09/08 09:03:13;;;;;;;10.20;7.67;;;;;;;25.32;52.25;99667.14;2180551;80;21575;-75
2022/09/08 09:06:53;;;;;;;10.13;6.87;;;;;;;25.46;52.01;99656.52;2182837;79;21014;-75
2022/09/08 09:10:40;;;;;;;11.93;7.37;;;;;;;25.55;51.02;99658.92;2184440;80;21037;-75
2022/09/08 09:14:34;;;;;;;11.25;7.33;;;;;;;25.64;51.10;99662.69;2181308;80;20955;-75
2022/09/08 09:17:54;;;;;;;8.08;7.17;;;;;;;25.61;51.36;99659.72;2181532;79;21013;-76
2022/09/08 09:21:09;;;;;;;10.03;7.47;;;;;;;25.78;50.87;99652.03;2193226;79;21069;-76
2022/09/08 09:24:39;;;;;;;13.20;7.37;;;;;;;25.81;50.84;99660.98;2190641;79;21473;-75
2022/09/08 09:27:53;;;;;;;10.55;7.42;;;;;;;25.67;50.13;99656.69;2170247;79;20997;-77
2022/09/08 09:31:45;;;;;;;9.88;7.62;;;;;;;25.68;50.09;99650.73;2191712;79;21005;-75
2022/09/08 09:35:06;;;;;;;12.98;7.42;;;;;;;25.67;50.43;99658.05;2188080;80;21036;-75
2022/09/08 09:38:44;;;;;;;11.85;7.37;;;;;;;25.66;49.83;99659.70;2181779;79;21134;-75
2022/09/08 09:42:15;;;;;;;14.55;8.33;;;;;;;25.68;50.35;99652.91;2184713;80;21062;-75
2022/09/08 09:45:38;;;;;;;18.00;13.25;;;;;;;25.79;50.36;99643.33;2186979;80;21580;-75
2022/09/08 09:49:11;;;;;;;12.60;9.80;;;;;;;25.98;50.71;99634.03;2180106;80;21026;-75
2022/09/08 09:53:11;;;;;;;13.75;7.67;;;;;;;26.18;49.94;99633.91;2178198;80;21050;-75
2022/09/08 09:56:56;;;;;;;10.00;7.40;;;;;;;26.25;49.54;99635.78;2188382;79;21477;-75
2022/09/08 10:00:24;;;;;;;10.23;7.45;;;;;;;26.28;49.57;99643.37;2190967;79;21525;-76
2022/09/08 10:04:01;;;;;;;8.83;7.28;;;;;;;26.34;49.96;99636.80;2194148;79;21588;-77
2022/09/08 10:07:48;;;;;;;8.58;7.55;;;;;;;26.45;49.51;99629.38;2051582;85;20991;-76
2022/09/08 10:11:26;;;;;;;11.75;7.87;;;;;;;26.64;49.40;99621.90;1991671;86;20985;-75
2022/09/08 10:14:59;;;;;;;10.30;7.37;;;;;;;26.59;49.61;99620.05;2045465;80;21042;-75
2022/09/08 10:18:52;;;;;;;9.28;7.50;;;;;;;26.57;49.38;99616.24;2189506;80;21521;-76
2022/09/08 10:22:16;;;;;;;9.15;6.90;;;;;;;26.67;49.28;99623.52;2186102;80;21015;-74
2022/09/08 10:25:42;;;;;;;10.68;7.53;;;;;;;26.75;49.03;99616.11;2192295;79;21019;-76
2022/09/08 10:29:09;;;;;;;15.50;8.15;;;;;;;26.71;49.79;99610.16;2189940;79;20939;-75
2022/09/08 10:32:27;;;;;;;9.55;6.92;;;;;;;26.59;49.43;99611.34;2188148;80;21519;-75
2022/09/08 10:35:46;;;;;;;9.93;8.15;;;;;;;26.52;49.71;99605.95;2187999;79;21512;-76
2022/09/08 10:38:56;;;;;;;9.98;8.13;;;;;;;26.45;49.46;99604.90;2189456;80;20990;-75
2022/09/08 10:42:32;;;;;;;10.95;8.25;;;;;;;26.38;50.04;99599.80;2187637;80;21541;-75
2022/09/08 10:46:27;;;;;;;10.40;7.72;;;;;;;26.41;49.83;99608.45;2196319;79;20976;-75
2022/09/08 10:50:10;;;;;;;11.78;7.75;;;;;;;26.44;50.54;99587.48;2189045;79;20970;-78
2022/09/08 10:53:21;;;;;;;12.03;8.43;;;;;;;26.41;49.70;99597.58;2183907;79;20967;-77
2022/09/08 10:56:29;;;;;;;8.93;7.30;;;;;;;26.30;50.31;99589.52;2189541;79;20979;-78
2022/09/08 11:00:10;;;;;;;11.83;7.78;;;;;;;26.24;50.19;99598.78;2189002;80;21448;-77
2022/09/08 11:03:41;;;;;;;13.08;8.45;;;;;;;25.96;49.87;99581.86;2100269;80;20991;-78
2022/09/08 11:07:33;;;;;;;14.13;8.13;;;;;;;25.88;50.51;99592.24;2185738;79;21002;-78
2022/09/08 11:11:09;;;;;;;11.45;8.55;;;;;;;25.94;50.85;99587.04;2163772;79;20966;-77
2022/09/08 11:14:41;;;;;;;12.58;8.40;;;;;;;25.97;50.98;99581.59;2191594;79;21054;-77
2022/09/08 11:17:47;;;;;;;11.97;8.00;;;;;;;25.91;50.98;99582.17;2191515;80;20991;-78
2022/09/08 11:21:03;;;;;;;14.35;8.03;;;;;;;25.76;50.95;99569.98;2189172;79;20991;-77
2022/09/08 11:24:17;;;;;;;;;;;;;;;25.69;50.95;99569.49;2190011;80;21112;-78
2022/09/08 11:27:58;;;;;;;14.07;8.90;;;;;;;25.60;50.84;99573.89;2185403;79;20107;-77
2022/09/08 11:31:25;;;;;;;10.80;7.67;;;;;;;25.48;51.17;99569.60;2193923;79;21482;-78
2022/09/08 11:35:03;;;;;;;16.20;8.30;;;;;;;25.35;51.35;99566.67;2153841;80;21038;-77
2022/09/08 11:38:31;;;;;;;11.78;7.78;;;;;;;25.22;51.50;99568.06;2187251;79;21006;-77
2022/09/08 11:41:50;;;;;;;10.20;8.08;;;;;;;25.11;52.02;99552.31;2184960;79;21488;-77
2022/09/08 11:45:22;;;;;;;11.10;7.25;;;;;;;25.05;52.11;99559.66;2188349;79;21073;-77
2022/09/08 11:48:38;;;;;;;11.80;7.50;;;;;;;25.02;52.29;99550.72;2180696;80;20999;-78
2022/09/08 11:52:30;;;;;;;15.48;8.45;;;;;;;25.02;52.59;99553.98;2182921;79;21932;-77
2022/09/08 11:56:00;;;;;;;;;;;;;;;25.04;52.77;99551.81;2188617;80;20967;-77
2022/09/08 11:59:31;;;;;;;12.25;7.83;;;;;;;25.09;53.08;99542.82;2186422;79;20134;-77
2022/09/08 12:02:40;;;;;;;14.58;7.80;;;;;;;25.36;52.87;99535.70;2190837;79;21045;-77
2022/09/08 12:06:01;;;;;;;14.10;7.95;;;;;;;25.90;52.79;99530.28;2176876;79;21469;-77
2022/09/08 12:09:42;;;;;;;12.20;8.10;;;;;;;26.29;52.03;99525.89;2182382;79;21081;-77
2022/09/08 12:13:01;;;;;;;12.88;7.60;;;;;;;26.74;52.77;99520.59;2184495;79;21002;-77
2022/09/08 12:16:27;;;;;;;10.90;7.37;;;;;;;27.11;50.97;99503.30;2185967;79;21457;-77
2022/09/08 12:19:41;;;;;;;9.00;7.08;;;;;;;27.24;49.90;99495.83;2187624;80;20958;-77
2022/09/08 12:23:22;;;;;;;9.08;7.33;;;;;;;27.05;49.64;99493.03;2188894;79;21031;-78
2022/09/08 12:26:45;;;;;;;10.93;7.75;;;;;;;26.83;49.21;99488.11;2190497;79;21037;-77
2022/09/08 12:30:05;;;;;;;11.75;7.37;;;;;;;26.48;49.94;99479.20;2180938;80;21031;-77
2022/09/08 12:33:44;;;;;;;8.95;7.78;;;;;;;26.36;50.12;99468.72;2192144;80;21423;-78
2022/09/08 12:36:49;;;;;;;11.80;8.30;;;;;;;26.47;50.75;99463.16;2097410;84;21069;-76
2022/09/08 12:40:21;;;;;;;13.98;7.85;;;;;;;26.65;50.63;99459.75;2070930;83;21150;-79
2022/09/08 12:43:29;;;;;;;11.18;7.60;;;;;;;26.71;50.58;99447.70;2184133;79;21517;-77
2022/09/08 12:46:42;;;;;;;13.25;7.67;;;;;;;26.74;50.21;99433.52;2180605;80;22049;-77
2022/09/08 12:49:54;;;;;;;9.55;7.58;;;;;;;26.69;50.24;99426.77;2181695;80;21014;-77
2022/09/08 12:53:15;;;;;;;11.35;7.22;;;;;;;26.68;50.39;99431.15;2188089;80;21512;-77
2022/09/08 12:56:59;;;;;;;13.48;8.58;;;;;;;26.76;50.28;99411.47;2187092;79;21022;-78
2022/09/08 13:00:15;;;;;;;10.05;8.23;;;;;;;26.81;49.97;99408.13;2189429;80;21009;-77
2022/09/08 13:03:36;;;;;;;10.45;7.55;;;;;;;26.98;50.36;99410.92;2185209;79;21010;-78
2022/09/08 13:06:49;;;;;;;10.18;8.70;;;;;;;27.03;49.99;99405.38;2188426;79;21057;-78
2022/09/08 13:10:23;;;;;;;9.85;8.28;;;;;;;26.93;49.01;99403.62;2189205;79;21454;-77
2022/09/08 13:13:41;;;;;;;10.28;8.08;;;;;;;26.76;49.17;99394.58;2159264;80;21579;-77
2022/09/08 13:16:57;;;;;;;10.95;8.13;;;;;;;26.58;49.67;99389.89;2184223;79;20963;-77
2022/09/08 13:20:24;;;;;;;11.55;7.42;;;;;;;26.36;49.55;99394.49;2188947;79;21541;-77
2022/09/08 13:23:50;;;;;;;9.38;7.12;;;;;;;26.14;49.92;99403.14;2189103;79;21529;-77
2022/09/08 13:27:11;;;;;;;8.78;6.72;;;;;;;26.02;50.20;99410.88;2187985;79;21057;-78
2022/09/08 13:30:52;;;;;;;12.50;7.28;;;;;;;25.92;50.60;99411.21;2188290;79;20991;-77
2022/09/08 13:34:22;;;;;;;9.00;7.78;;;;;;;25.81;50.71;99408.84;2166208;80;21011;-77
2022/09/08 13:37:54;;;;;;;18.02;8.15;;;;;;;25.74;50.88;99415.16;2183291;80;21046;-78
2022/09/08 13:41:20;;;;;;;11.70;7.78;;;;;;;25.67;50.99;99415.47;2166610;79;21014;-77
2022/09/08 13:45:06;;;;;;;8.25;7.22;;;;;;;25.61;51.02;99410.62;2185342;80;21077;-77
2022/09/08 13:48:28;;;;;;;9.20;7.30;;;;;;;25.48;50.79;99413.44;2191236;79;21022;-77
2022/09/08 13:51:49;;;;;;;10.32;7.05;;;;;;;25.33;51.11;99389.09;2184364;80;20996;-75
2022/09/08 13:55:25;;;;;;;15.93;7.67;;;;;;;25.19;51.38;99380.77;2190177;80;21031;-76
2022/09/08 13:58:36;;;;;;;14.53;7.65;;;;;;;25.08;51.78;99366.16;2172501;80;20993;-76
2022/09/08 14:01:43;;;;;;;16.60;7.28;;;;;;;24.94;51.85;99355.10;2163070;80;21033;-76
2022/09/08 14:04:48;;;;;;;10.80;7.50;;;;;;;24.83;52.05;99355.18;2192598;80;21010;-76
2022/09/08 14:07:54;;;;;;;10.10;7.70;;;;;;;24.73;52.12;99344.92;2192292;80;21021;-76
2022/09/08 14:11:11;;;;;;;12.98;7.50;;;;;;;24.62;52.26;99355.00;2185869;79;20982;-73
2022/09/08 14:14:30;;;;;;;13.25;7.12;;;;;;;24.52;52.21;99327.91;2193277;79;21029;-77
2022/09/08 14:18:14;;;;;;;10.63;7.95;;;;;;;24.43;52.49;99317.35;2196254;79;21031;-77
2022/09/08 14:21:45;;;;;;;13.83;8.43;;;;;;;24.34;52.70;99323.89;2193726;79;20931;-76
2022/09/08 14:25:06;;;;;;;11.70;7.72;;;;;;;24.25;52.94;99329.63;2188470;79;21007;-75
2022/09/08 14:28:19;;;;;;;13.58;7.92;;;;;;;24.18;53.13;99337.22;2191875;79;21061;-77
2022/09/08 14:31:38;;;;;;;10.35;8.18;;;;;;;24.11;53.82;99339.68;2167731;80;20923;-81
2022/09/08 14:35:16;;;;;;;12.00;8.28;;;;;;;23.94;54.58;99351.38;2188553;80;21006;-75
2022/09/08 14:38:36;;;;;;;12.88;8.58;;;;;;;23.77;54.82;99360.34;2194486;79;21010;-82
2022/09/08 14:41:54;;;;;;;13.68;8.35;;;;;;;23.62;55.22;99372.73;2189251;80;21524;-75
2022/09/08 14:45:09;;;;;;;19.15;9.13;;;;;;;23.55;55.64;99396.58;2184591;79;21047;-75
2022/09/08 14:48:19;;;;;;;11.05;5.08;;;;;;;23.49;56.74;99487.81;2190533;79;21058;-74
2022/09/08 14:51:34;;;;;;;11.80;3.33;;;;;;;23.00;57.56;99558.53;2186123;80;21124;-73
2022/09/08 15:27:06;;;;;;;5.13;2.70;;;;;;;17.64;73.22;99546.27;2151198;79;57408;-77
2022/09/08 15:30:19;;;;;;;3.00;2.35;;;;;;;17.38;73.32;99541.55;2173176;80;21266;-77
2022/09/08 15:33:21;;;;;;;3.75;2.42;;;;;;;17.30;73.70;99541.84;2172610;80;21093;-79
2022/09/08 15:37:09;;;;;;;6.15;2.50;;;;;;;17.26;73.65;99550.06;2176396;80;21002;-77
2022/09/08 15:40:24;;;;;;;4.20;2.37;;;;;;;17.30;73.72;99549.89;2169505;80;21058;-78
2022/09/08 15:43:31;;;;;;;6.90;2.95;;;;;;;17.35;74.36;99574.70;2175824;79;21375;-77
2022/09/08 15:47:02;;;;;;;4.58;2.58;;;;;;;17.19;75.05;99586.83;2175792;80;21033;-77
2022/09/08 15:50:07;;;;;;;;;;;;;;;17.10;75.36;99594.34;2184261;80;21176;-79